Time;durP1;ratioP1;P1;durP2;ratioP2;P2;SDS_P1;SDS_P2;PMS_P1;PMS_P2;Temp;Humidity;BMP_temperature;BMP_pressure;BME280_temperature;BME280_humidity;BME280_pressure;Samples;Min_cycle;Max_cycle;Signal;HPM_P1;HPM_P2
2022/07/29 00:00:01;;;;;;;6.47;1.65;;;;;;;14.39;81.82;101941.59;5112548;28;20104;-75
2022/07/29 00:02:27;;;;;;;5.20;1.50;;;;;;;14.37;81.88;101938.19;5111963;28;20456;-75
2022/07/29 00:04:53;;;;;;;3.63;1.40;;;;;;;14.33;81.51;101920.75;5112654;27;20038;-74
2022/07/29 00:07:18;;;;;;;3.55;1.42;;;;;;;14.33;80.88;101928.78;5111764;28;20221;-74
2022/07/29 00:09:44;;;;;;;2.83;1.40;;;;;;;14.32;80.20;101929.75;5112560;28;20411;-73
2022/07/29 00:12:09;;;;;;;1.63;1.35;;;;;;;14.31;80.38;101917.34;5112303;28;20032;-73
2022/07/29 00:14:35;;;;;;;7.80;1.60;;;;;;;14.31;80.90;101920.00;5111534;28;20465;-74
2022/07/29 00:17:00;;;;;;;3.15;1.42;;;;;;;14.29;80.23;101919.31;5112078;28;20035;-74
2022/07/29 00:19:26;;;;;;;3.13;1.35;;;;;;;14.26;80.82;101927.63;5111594;28;20468;-74
2022/07/29 00:21:51;;;;;;;2.88;1.35;;;;;;;14.26;80.64;101927.63;5110557;28;20035;-73
2022/07/29 00:24:17;;;;;;;2.83;1.40;;;;;;;14.26;80.46;101915.06;5112107;28;20036;-73
2022/07/29 00:26:42;;;;;;;4.45;1.58;;;;;;;14.26;80.23;101912.38;5111995;28;20391;-73
2022/07/29 00:29:07;;;;;;;1.60;1.50;;;;;;;14.25;80.89;101917.88;5110662;28;20066;-73
2022/07/29 00:31:33;;;;;;;10.38;1.63;;;;;;;14.21;80.74;101913.78;5111486;28;20035;-75
2022/07/29 00:33:58;;;;;;;3.83;1.48;;;;;;;14.20;81.29;101920.97;5111728;28;20031;-74
2022/07/29 00:36:23;;;;;;;4.18;1.58;;;;;;;14.17;80.82;101915.91;5111693;28;20031;-73
2022/07/29 00:38:50;;;;;;;7.15;1.88;;;;;;;14.16;81.97;101922.22;5111339;28;20024;-73
2022/07/29 00:41:16;;;;;;;2.35;1.40;;;;;;;14.13;82.69;101919.81;5110196;28;20028;-73
2022/07/29 00:43:42;;;;;;;4.20;1.35;;;;;;;14.08;81.83;101914.03;5111379;28;20019;-73
2022/07/29 00:46:08;;;;;;;6.80;1.63;;;;;;;14.05;82.48;101909.81;5111693;28;20043;-73
2022/07/29 00:48:33;;;;;;;3.65;1.50;;;;;;;14.02;82.68;101907.41;5111318;28;20036;-73
2022/07/29 00:51:01;;;;;;;4.10;1.70;;;;;;;14.01;82.41;101908.38;5111637;28;20144;-73
2022/07/29 00:53:26;;;;;;;5.25;1.50;;;;;;;13.96;82.88;101907.06;5110947;28;20038;-73
2022/07/29 00:55:54;;;;;;;3.38;1.60;;;;;;;13.93;83.00;101906.38;5111609;28;20031;-73
2022/07/29 00:58:20;;;;;;;2.45;1.30;;;;;;;13.91;83.75;101911.03;5111575;28;20051;-73
2022/07/29 01:00:45;;;;;;;4.45;1.50;;;;;;;13.90;84.03;101911.16;5111195;28;20465;-73
2022/07/29 01:03:11;;;;;;;3.50;1.63;;;;;;;13.87;84.48;101904.25;5111476;28;20039;-73
2022/07/29 01:05:37;;;;;;;2.92;1.45;;;;;;;13.84;84.52;101904.50;5111159;28;20085;-73
2022/07/29 01:08:03;;;;;;;5.13;1.42;;;;;;;13.83;85.32;101910.00;5111618;28;20036;-73
2022/07/29 01:10:30;;;;;;;4.15;1.42;;;;;;;13.80;85.88;101910.28;5111140;28;20041;-73
2022/07/29 01:12:58;;;;;;;4.03;1.48;;;;;;;13.77;86.66;101902.53;5111435;28;20132;-74
2022/07/29 01:15:24;;;;;;;5.38;2.15;;;;;;;13.74;86.81;101903.63;5111341;28;20452;-74
2022/07/29 01:18:13;;;;;;;2.28;1.63;;;;;;;13.71;86.59;101898.53;5111485;28;20028;-74
2022/07/29 01:21:10;;;;;;;5.72;1.63;;;;;;;13.68;87.21;101899.66;5111179;28;20491;-74
2022/07/29 01:23:38;;;;;;;3.88;1.40;;;;;;;13.65;86.92;101891.91;5110787;28;20031;-74
2022/07/29 01:26:28;;;;;;;3.67;1.50;;;;;;;13.67;87.04;101895.28;5111063;28;20081;-73
2022/07/29 01:28:59;;;;;;;6.00;1.70;;;;;;;13.67;87.15;101895.28;5111661;28;20035;-74
2022/07/29 01:31:35;;;;;;;5.15;1.60;;;;;;;13.67;87.22;101892.59;5111530;28;20024;-74
2022/07/29 01:34:05;;;;;;;4.25;1.38;;;;;;;13.63;87.39;101893.00;5111769;28;20028;-74
2022/07/29 01:36:43;;;;;;;5.25;1.40;;;;;;;13.62;87.55;101894.00;5111330;28;20065;-74
2022/07/29 01:39:18;;;;;;;3.22;1.48;;;;;;;13.61;87.79;101884.28;5111194;28;20507;-75
2022/07/29 01:41:55;;;;;;;3.97;1.80;;;;;;;13.60;87.37;101883.44;5110962;28;20034;-74
2022/07/29 01:44:32;;;;;;;4.75;1.52;;;;;;;13.58;88.12;101880.91;5111251;28;20340;-75
2022/07/29 01:47:05;;;;;;;2.72;1.38;;;;;;;13.60;88.39;101893.28;5111437;28;20024;-73
2022/07/29 01:49:36;;;;;;;3.50;1.40;;;;;;;13.58;88.25;101878.22;5112034;28;20039;-74
2022/07/29 01:52:07;;;;;;;3.88;1.92;;;;;;;13.57;88.46;101871.19;5113826;28;20024;-73
2022/07/29 01:54:42;;;;;;;3.30;1.70;;;;;;;13.55;87.74;101875.81;5114988;28;20070;-74
2022/07/29 01:57:10;;;;;;;5.60;1.83;;;;;;;13.55;88.39;101874.97;5115189;28;20384;-73
2022/07/29 01:59:37;;;;;;;6.15;1.80;;;;;;;13.52;88.62;101865.38;5114502;28;20024;-74
2022/07/29 02:02:02;;;;;;;5.10;1.88;;;;;;;13.50;88.67;101864.66;5114760;28;20032;-73
2022/07/29 02:04:30;;;;;;;2.88;1.50;;;;;;;13.49;88.93;101867.47;5114991;28;20472;-73
2022/07/29 02:07:01;;;;;;;5.53;1.73;;;;;;;13.46;89.93;101870.41;5114884;28;20031;-73
2022/07/29 02:09:28;;;;;;;3.63;2.25;;;;;;;13.42;89.88;101860.97;5114668;28;20127;-73
2022/07/29 02:11:55;;;;;;;5.97;1.50;;;;;;;13.39;90.19;101860.25;5114280;28;20038;-73
2022/07/29 02:14:22;;;;;;;2.47;1.40;;;;;;;13.36;90.45;101859.66;5114270;28;20055;-73
2022/07/29 02:16:51;;;;;;;3.30;1.52;;;;;;;13.34;91.25;101853.59;5113928;28;20111;-74
2022/07/29 02:19:19;;;;;;;4.05;1.40;;;;;;;13.31;90.88;101865.38;5114170;28;20106;-73
2022/07/29 02:21:46;;;;;;;5.90;1.80;;;;;;;13.28;91.15;101859.44;5113898;28;20124;-73
2022/07/29 02:24:13;;;;;;;3.08;1.40;;;;;;;13.28;91.38;101862.97;5113987;28;20038;-73
2022/07/29 02:26:42;;;;;;;3.25;1.73;;;;;;;13.26;90.59;101861.41;5113763;28;20032;-73
2022/07/29 02:29:09;;;;;;;2.92;1.90;;;;;;;13.25;90.57;101862.41;5114102;28;20028;-74
2022/07/29 02:31:37;;;;;;;3.45;1.75;;;;;;;13.22;90.85;101863.50;5113894;28;20039;-75
2022/07/29 02:34:06;;;;;;;4.25;1.83;;;;;;;13.21;91.78;101861.78;5114159;27;20054;-73
2022/07/29 02:36:33;;;;;;;6.60;1.80;;;;;;;13.18;91.35;101865.59;5114180;28;20107;-73
2022/07/29 02:39:00;;;;;;;2.10;1.60;;;;;;;13.18;91.44;101851.38;5113549;28;20035;-73
2022/07/29 02:41:33;;;;;;;4.68;2.03;;;;;;;13.17;91.56;101858.53;5113916;28;20032;-74
2022/07/29 02:44:15;;;;;;;3.30;1.73;;;;;;;13.15;91.70;101862.31;5113400;27;20028;-73
2022/07/29 02:46:50;;;;;;;3.83;1.88;;;;;;;13.13;91.61;101861.63;5113661;28;20043;-74
2022/07/29 02:49:40;;;;;;;2.72;1.58;;;;;;;13.11;91.52;101861.75;5112827;28;20436;-73
2022/07/29 02:52:18;;;;;;;4.05;1.70;;;;;;;13.09;91.42;101868.19;5113809;28;20038;-73
2022/07/29 02:55:10;;;;;;;4.07;1.80;;;;;;;13.04;91.86;101858.72;5113673;28;20088;-73
2022/07/29 02:57:59;;;;;;;6.15;1.77;;;;;;;12.99;92.32;101860.97;5112755;28;20042;-73
2022/07/29 03:00:28;;;;;;;4.13;2.00;;;;;;;12.94;92.29;101865.81;5113437;28;20103;-73
2022/07/29 03:03:00;;;;;;;5.10;1.75;;;;;;;12.87;92.69;101857.50;5113283;28;20456;-73
2022/07/29 03:05:27;;;;;;;3.42;2.00;;;;;;;12.79;92.71;101851.09;5113587;28;20534;-73
2022/07/29 03:07:58;;;;;;;3.42;1.77;;;;;;;12.74;93.21;101850.66;5111756;28;20072;-73
2022/07/29 03:10:27;;;;;;;;;;;;;;;12.72;93.42;101844.59;5114101;28;20020;-73
2022/07/29 03:12:53;;;;;;;1.75;1.50;;;;;;;12.67;93.83;101837.81;5112524;28;19942;-73
2022/07/29 03:15:20;;;;;;;9.95;3.03;;;;;;;12.66;94.07;101836.13;5113517;28;20027;-73
2022/07/29 03:17:46;;;;;;;5.43;2.08;;;;;;;12.64;94.29;101837.22;5112900;28;20544;-74
2022/07/29 03:20:13;;;;;;;2.63;1.63;;;;;;;12.62;94.39;101844.53;5113114;28;20472;-74
2022/07/29 03:22:46;;;;;;;6.05;1.90;;;;;;;12.60;94.49;101833.97;5112872;28;20054;-73
2022/07/29 03:25:17;;;;;;;4.15;2.00;;;;;;;12.60;94.17;101841.97;5113252;28;20422;-73
2022/07/29 03:27:43;;;;;;;2.80;2.10;;;;;;;12.61;94.33;101835.63;5112714;27;20097;-74
2022/07/29 03:30:09;;;;;;;5.53;2.00;;;;;;;12.60;94.17;101828.63;5112816;28;20027;-73
2022/07/29 03:32:35;;;;;;;2.88;2.13;;;;;;;12.61;93.99;101832.97;5112873;28;20035;-73
2022/07/29 03:35:01;;;;;;;4.97;3.38;;;;;;;12.63;94.51;101833.72;5112466;28;20034;-73
2022/07/29 03:37:26;;;;;;;3.65;2.20;;;;;;;12.64;94.57;101835.38;5112797;28;20057;-73
2022/07/29 03:39:54;;;;;;;3.72;2.10;;;;;;;12.65;94.33;101837.09;5112161;28;20032;-73
2022/07/29 03:42:23;;;;;;;7.75;2.15;;;;;;;12.66;94.53;101840.63;5112786;28;20387;-74
2022/07/29 03:44:51;;;;;;;5.03;2.42;;;;;;;12.65;94.12;101836.25;5112651;28;20483;-74
2022/07/29 03:47:22;;;;;;;3.65;2.13;;;;;;;12.65;93.83;101838.91;5112840;28;20123;-74
2022/07/29 03:49:50;;;;;;;3.00;2.25;;;;;;;12.63;94.00;101833.72;5112288;28;20028;-74
2022/07/29 03:52:16;;;;;;;8.48;3.22;;;;;;;12.62;94.00;101829.34;5112551;28;20080;-74
2022/07/29 03:54:42;;;;;;;3.55;2.83;;;;;;;12.60;94.16;101833.97;5110920;28;20446;-74
2022/07/29 03:57:11;;;;;;;4.05;2.80;;;;;;;12.59;94.51;101842.09;5112216;28;20107;-74
2022/07/29 03:59:37;;;;;;;5.28;2.63;;;;;;;12.58;94.27;101840.41;5112553;28;20106;-74
2022/07/29 04:02:05;;;;;;;6.05;2.83;;;;;;;12.57;94.13;101828.03;5111801;28;20040;-74
2022/07/29 04:04:33;;;;;;;5.20;2.53;;;;;;;12.56;94.22;101834.34;5112648;28;20036;-74
2022/07/29 04:06:58;;;;;;;6.18;3.00;;;;;;;12.57;94.03;101830.69;5111819;28;20076;-75
2022/07/29 04:09:24;;;;;;;5.13;2.70;;;;;;;12.59;93.77;101842.09;5110783;28;20400;-74
2022/07/29 04:11:49;;;;;;;3.70;2.25;;;;;;;12.59;93.56;101828.75;5111371;28;20443;-74
2022/07/29 04:14:15;;;;;;;5.47;2.75;;;;;;;12.64;92.93;101839.88;5110443;28;20051;-74
2022/07/29 04:16:40;;;;;;;4.10;2.47;;;;;;;12.64;92.93;101835.38;5112085;28;20133;-74
2022/07/29 04:19:06;;;;;;;4.18;2.35;;;;;;;12.66;92.92;101838.78;5110424;28;20109;-74
2022/07/29 04:21:37;;;;;;;3.03;2.50;;;;;;;12.67;92.94;101835.16;5111961;28;20057;-74
2022/07/29 04:24:02;;;;;;;4.32;2.55;;;;;;;12.67;92.58;101840.50;5093588;28;20404;-74
2022/07/29 04:26:27;;;;;;;3.97;2.28;;;;;;;12.66;92.90;101829.94;5112108;28;20135;-74
2022/07/29 04:28:53;;;;;;;7.22;2.38;;;;;;;12.67;92.38;101835.16;5111712;28;20027;-74
2022/07/29 04:31:18;;;;;;;4.45;2.25;;;;;;;12.65;92.59;101825.56;5110593;28;20034;-74
2022/07/29 04:33:43;;;;;;;4.22;2.13;;;;;;;12.64;92.96;101826.53;5111808;28;20040;-74
2022/07/29 04:36:10;;;;;;;4.20;2.58;;;;;;;12.62;93.09;101828.50;5111331;28;20543;-74
2022/07/29 04:38:36;;;;;;;4.50;2.30;;;;;;;12.60;92.98;101831.31;5111658;28;20100;-74
2022/07/29 04:41:01;;;;;;;6.28;2.55;;;;;;;12.58;92.50;101835.91;5111363;28;20035;-74
2022/07/29 04:43:27;;;;;;;3.80;2.50;;;;;;;12.53;92.60;101833.63;5110362;28;20031;-73
2022/07/29 04:45:52;;;;;;;10.85;2.90;;;;;;;12.49;92.73;101837.50;5111268;28;20024;-74
2022/07/29 04:48:17;;;;;;;4.55;2.22;;;;;;;12.44;93.77;101846.91;5110048;28;20071;-74
2022/07/29 04:50:44;;;;;;;4.30;2.30;;;;;;;12.39;94.19;101838.41;5111474;28;20469;-72
2022/07/29 04:53:09;;;;;;;5.53;2.78;;;;;;;12.35;94.28;101846.66;5110821;28;20054;-72
2022/07/29 04:55:36;;;;;;;6.22;2.40;;;;;;;12.32;94.71;101844.25;5111580;28;20035;-73
2022/07/29 04:58:01;;;;;;;5.60;2.53;;;;;;;12.34;94.62;101838.78;5109750;28;20093;-72
2022/07/29 05:00:27;;;;;;;3.97;2.53;;;;;;;12.35;94.75;101837.81;5111594;28;20036;-73
2022/07/29 05:02:53;;;;;;;5.75;2.53;;;;;;;12.35;95.14;101836.00;5111265;28;20115;-83
2022/07/29 05:05:18;;;;;;;4.20;2.20;;;;;;;12.36;95.24;101836.84;5111256;28;20035;-73
2022/07/29 05:07:43;;;;;;;6.20;2.50;;;;;;;12.39;95.69;101841.94;5109693;28;20034;-73
2022/07/29 05:10:09;;;;;;;4.05;2.28;;;;;;;12.44;95.57;101841.56;5110712;28;20027;-73
2022/07/29 05:12:35;;;;;;;2.28;1.98;;;;;;;12.53;95.13;101843.47;5111582;28;20054;-72
2022/07/29 05:15:00;;;;;;;2.63;2.00;;;;;;;12.62;94.98;101848.03;5111044;28;20153;-75
2022/07/29 05:17:26;;;;;;;4.72;2.30;;;;;;;12.72;94.64;101855.25;5111120;28;20057;-72
2022/07/29 05:19:52;;;;;;;3.05;2.13;;;;;;;12.85;93.92;101845.25;5111049;28;20059;-72
2022/07/29 05:22:18;;;;;;;3.30;1.80;;;;;;;12.98;93.97;101848.56;5110700;28;20032;-73
2022/07/29 05:24:44;;;;;;;7.35;1.77;;;;;;;13.14;93.51;101844.63;5112928;28;20059;-74
2022/07/29 05:27:09;;;;;;;2.95;1.73;;;;;;;13.35;92.51;101855.31;5114862;28;20040;-72
2022/07/29 05:29:35;;;;;;;6.25;1.98;;;;;;;13.54;89.95;101854.53;5114892;28;20115;-74
2022/07/29 05:32:00;;;;;;;4.68;1.83;;;;;;;13.79;90.38;101853.22;5113146;28;20399;-73
2022/07/29 05:34:26;;;;;;;5.22;2.10;;;;;;;14.01;89.69;101854.84;5115083;28;20031;-75
2022/07/29 05:36:51;;;;;;;5.70;2.17;;;;;;;14.24;88.03;101846.59;5114952;28;20051;-72
2022/07/29 05:39:16;;;;;;;2.90;1.80;;;;;;;14.48;86.57;101848.88;5114832;28;20224;-75
2022/07/29 05:41:42;;;;;;;5.78;1.92;;;;;;;14.71;85.43;101851.31;5115312;28;20030;-73
2022/07/29 05:44:07;;;;;;;3.83;1.85;;;;;;;14.94;84.37;101851.84;5114434;28;20106;-73
2022/07/29 05:46:33;;;;;;;6.18;1.90;;;;;;;15.13;84.23;101854.50;5115141;28;20038;-74
2022/07/29 05:48:58;;;;;;;5.85;2.58;;;;;;;15.30;83.98;101852.06;5114909;28;20366;-74
2022/07/29 05:51:23;;;;;;;2.78;2.03;;;;;;;15.43;82.41;101857.94;5114694;28;20092;-74
2022/07/29 05:53:49;;;;;;;4.65;1.85;;;;;;;15.55;81.37;101857.78;5115222;28;20047;-74
2022/07/29 05:56:14;;;;;;;4.82;2.00;;;;;;;15.70;81.79;101861.66;5114567;28;20357;-73
2022/07/29 05:58:39;;;;;;;6.85;2.10;;;;;;;15.81;81.11;101857.97;5114726;28;20384;-74
2022/07/29 06:01:05;;;;;;;3.85;1.60;;;;;;;15.92;80.74;101863.13;5114238;28;20024;-74
2022/07/29 06:03:30;;;;;;;2.10;1.90;;;;;;;15.97;78.63;101868.91;5114497;28;20061;-73
2022/07/29 06:05:55;;;;;;;7.00;1.60;;;;;;;16.13;79.57;101862.88;5114631;28;20107;-74
2022/07/29 06:08:21;;;;;;;6.13;2.00;;;;;;;16.26;79.42;101862.53;5114115;28;20118;-73
2022/07/29 06:10:46;;;;;;;6.45;1.92;;;;;;;16.38;78.66;101858.59;5114954;28;20038;-73
2022/07/29 06:13:12;;;;;;;3.92;1.83;;;;;;;16.50;77.83;101859.22;5113713;27;20149;-73
2022/07/29 06:15:38;;;;;;;7.25;1.80;;;;;;;16.63;77.54;101860.69;5114475;28;20036;-72
2022/07/29 06:18:03;;;;;;;4.93;1.95;;;;;;;16.74;77.04;101863.13;5114084;28;20036;-74
2022/07/29 06:20:30;;;;;;;3.20;1.85;;;;;;;16.79;76.65;101863.50;5114392;28;20077;-73
2022/07/29 06:22:56;;;;;;;3.63;1.92;;;;;;;16.89;76.18;101861.59;5114647;28;20024;-73
2022/07/29 06:25:21;;;;;;;3.95;1.80;;;;;;;16.98;74.88;101867.91;5114563;28;20050;-73
2022/07/29 06:27:46;;;;;;;4.32;1.95;;;;;;;17.06;74.28;101873.34;5115063;28;20032;-73
2022/07/29 06:30:12;;;;;;;5.32;2.10;;;;;;;17.17;74.40;101874.09;5114491;28;20032;-74
2022/07/29 06:32:37;;;;;;;5.03;2.08;;;;;;;17.16;72.87;101870.53;5114952;28;20039;-72
2022/07/29 06:35:03;;;;;;;4.78;2.40;;;;;;;17.12;72.78;101877.22;5114241;28;20043;-75
2022/07/29 06:37:28;;;;;;;4.40;1.80;;;;;;;17.32;74.34;101882.44;5114331;28;20046;-73
2022/07/29 06:42:42;;;;;;;5.57;1.83;;;;;;;17.45;73.86;101877.44;5114957;28;20043;-73
2022/07/29 06:45:07;;;;;;;5.30;2.10;;;;;;;17.51;74.04;101876.84;5114111;28;20119;-74
2022/07/29 06:47:33;;;;;;;3.40;1.88;;;;;;;17.65;73.59;101878.06;5114512;28;20502;-73
2022/07/29 06:49:58;;;;;;;3.78;2.60;;;;;;;17.76;72.91;101869.69;5113400;28;20036;-74
2022/07/29 06:52:25;;;;;;;3.97;2.03;;;;;;;17.82;72.26;101873.59;5112703;28;20101;-74
2022/07/29 06:54:50;;;;;;;6.65;1.77;;;;;;;17.89;71.73;101882.75;5114624;28;20027;-74
2022/07/29 06:57:16;;;;;;;4.20;2.17;;;;;;;17.95;70.18;101875.88;5113924;28;20110;-74
2022/07/29 06:59:41;;;;;;;5.22;1.77;;;;;;;18.01;70.54;101879.78;5114689;27;20027;-74
2022/07/29 07:02:06;;;;;;;3.83;1.95;;;;;;;18.05;70.85;101890.06;5113535;28;20099;-74
2022/07/29 07:04:32;;;;;;;3.58;1.80;;;;;;;18.09;70.87;101895.94;5112752;28;20047;-74
2022/07/29 07:06:57;;;;;;;3.22;1.70;;;;;;;17.93;70.36;101892.19;5114558;28;20027;-74
2022/07/29 07:09:23;;;;;;;5.50;1.83;;;;;;;17.76;70.62;101895.78;5113852;28;20042;-73
2022/07/29 07:11:48;;;;;;;6.90;1.90;;;;;;;17.68;73.20;101895.75;5114123;28;20066;-74
2022/07/29 07:14:13;;;;;;;3.50;1.90;;;;;;;17.59;73.96;101903.78;5113890;28;20170;-75
2022/07/29 07:16:39;;;;;;;3.88;2.08;;;;;;;17.53;73.18;101901.72;5113921;28;20063;-72
2022/07/29 07:19:04;;;;;;;5.18;1.98;;;;;;;17.37;72.97;101897.06;5112379;28;20066;-72
2022/07/29 07:21:29;;;;;;;2.60;1.70;;;;;;;17.25;75.00;101893.78;5113617;28;20115;-73
2022/07/29 07:23:55;;;;;;;4.60;2.17;;;;;;;17.12;76.37;101904.13;5113862;28;20042;-72
2022/07/29 07:26:20;;;;;;;4.97;1.83;;;;;;;17.01;77.04;101899.84;5113320;28;20115;-72
2022/07/29 07:28:45;;;;;;;3.83;1.90;;;;;;;16.90;76.61;101903.63;5113889;28;20035;-72
2022/07/29 07:31:11;;;;;;;9.50;2.95;;;;;;;16.81;77.03;101891.09;5113659;28;20067;-73
2022/07/29 07:33:37;;;;;;;6.20;2.05;;;;;;;16.70;77.80;101888.63;5113076;28;20035;-73
2022/07/29 07:36:02;;;;;;;2.95;1.95;;;;;;;16.63;78.19;101901.84;5113592;28;20053;-73
2022/07/29 07:38:28;;;;;;;4.88;1.88;;;;;;;16.58;79.01;101898.75;5111983;28;20465;-73
2022/07/29 07:40:53;;;;;;;6.13;1.98;;;;;;;16.49;77.71;101899.66;5112299;28;20036;-72
2022/07/29 07:43:19;;;;;;;5.18;2.13;;;;;;;16.49;77.91;101897.81;5113214;28;20136;-73
2022/07/29 07:45:44;;;;;;;6.43;2.30;;;;;;;16.67;79.61;101900.50;5113475;28;20461;-73
2022/07/29 07:48:10;;;;;;;4.45;1.98;;;;;;;16.92;79.83;101903.47;5106817;28;20031;-73
2022/07/29 07:50:36;;;;;;;4.43;1.95;;;;;;;17.28;77.87;101903.41;5110098;28;20459;-73
2022/07/29 07:53:02;;;;;;;7.10;2.30;;;;;;;17.68;74.13;101906.53;5109624;28;20455;-73
2022/07/29 07:55:28;;;;;;;6.78;2.00;;;;;;;18.13;73.78;101906.22;5109770;28;20032;-74
2022/07/29 07:57:54;;;;;;;4.45;1.90;;;;;;;18.62;71.25;101901.97;5110258;28;20040;-75
2022/07/29 08:00:21;;;;;;;7.78;2.20;;;;;;;19.08;68.68;101901.50;5109544;28;20090;-73
2022/07/29 08:02:47;;;;;;;6.22;1.90;;;;;;;19.41;67.42;101898.75;5110133;28;20042;-74
2022/07/29 08:05:16;;;;;;;7.20;2.10;;;;;;;19.59;64.93;101902.09;5109946;28;20040;-74
2022/07/29 08:07:45;;;;;;;7.90;2.05;;;;;;;19.58;63.53;101894.19;5109675;28;20035;-74
2022/07/29 08:10:11;;;;;;;5.30;2.10;;;;;;;19.73;65.45;101890.59;5109675;28;20549;-73
2022/07/29 08:12:37;;;;;;;3.55;1.88;;;;;;;19.78;63.21;101894.63;5109610;28;20032;-73
2022/07/29 08:15:03;;;;;;;5.25;2.40;;;;;;;19.78;62.79;101897.34;5108352;28;20052;-73
2022/07/29 08:17:28;;;;;;;5.80;1.95;;;;;;;19.68;63.82;101903.75;5093116;28;20473;-73
2022/07/29 08:19:54;;;;;;;5.50;2.03;;;;;;;19.65;64.41;101890.59;5107176;28;20028;-72
2022/07/29 08:22:19;;;;;;;4.57;2.63;;;;;;;19.54;64.01;101893.66;5112133;28;20061;-73
2022/07/29 08:24:52;;;;;;;3.67;2.28;;;;;;;19.45;65.62;101897.41;5112580;28;20093;-74
2022/07/29 08:27:19;;;;;;;6.35;2.15;;;;;;;19.44;65.38;101895.75;5112415;28;20115;-73
2022/07/29 08:29:44;;;;;;;4.30;2.10;;;;;;;19.34;65.44;101895.91;5112168;28;20040;-75
2022/07/29 08:32:10;;;;;;;5.32;2.00;;;;;;;19.38;65.66;101891.88;5111936;28;20046;-74
2022/07/29 08:34:35;;;;;;;7.13;2.42;;;;;;;19.31;66.66;101893.56;5110411;28;20473;-74
2022/07/29 08:37:00;;;;;;;8.52;2.50;;;;;;;19.20;66.49;101900.16;5112649;28;20035;-74
2022/07/29 08:39:26;;;;;;;7.03;2.28;;;;;;;19.31;69.51;101907.06;5112045;28;20484;-77
2022/07/29 08:41:52;;;;;;;7.00;2.20;;;;;;;19.58;67.22;101903.13;5112474;28;20039;-76
2022/07/29 08:44:18;;;;;;;3.17;2.58;;;;;;;19.94;66.81;101902.69;5112773;28;20027;-73
2022/07/29 08:46:44;;;;;;;5.82;2.30;;;;;;;20.41;63.77;101903.63;5112015;28;20036;-75
2022/07/29 08:49:10;;;;;;;6.40;2.40;;;;;;;20.83;60.10;101907.75;5112519;28;20042;-75
2022/07/29 08:51:39;;;;;;;8.85;2.50;;;;;;;21.26;60.27;101901.81;5093615;28;20039;-72
2022/07/29 08:54:05;;;;;;;3.78;2.33;;;;;;;21.71;57.37;101907.28;5112295;28;20102;-72
2022/07/29 08:56:31;;;;;;;3.72;2.63;;;;;;;21.87;56.82;101911.66;5111853;28;20031;-73
2022/07/29 08:58:58;;;;;;;6.40;2.72;;;;;;;21.76;56.57;101907.56;5112051;28;20034;-73
2022/07/29 09:01:27;;;;;;;4.05;2.30;;;;;;;21.91;56.81;101911.09;5111345;28;20123;-74
2022/07/29 09:03:56;;;;;;;3.88;2.30;;;;;;;21.96;58.46;101907.81;5111649;28;20115;-73
2022/07/29 09:06:27;;;;;;;5.80;2.63;;;;;;;21.97;58.89;101904.91;5111003;28;20220;-74
2022/07/29 09:08:54;;;;;;;5.90;2.80;;;;;;;21.87;56.12;101907.09;5110705;28;20032;-73
2022/07/29 09:11:20;;;;;;;4.32;2.55;;;;;;;22.55;59.23;101909.56;5112271;28;20034;-77
2022/07/29 09:13:46;;;;;;;6.95;2.45;;;;;;;23.67;52.70;101890.84;5110237;28;20055;-74
2022/07/29 09:16:11;;;;;;;5.55;2.17;;;;;;;24.86;49.70;101886.00;5112110;28;20155;-75
2022/07/29 09:18:39;;;;;;;9.48;2.42;;;;;;;26.12;45.76;101893.09;5111862;28;20489;-74
2022/07/29 09:24:03;;;;;;;7.13;2.92;;;;;;;28.07;39.85;101889.50;5111954;28;20123;-73
2022/07/29 09:26:33;;;;;;;6.03;2.70;;;;;;;29.14;39.01;101885.97;5110771;28;20023;-74
2022/07/29 09:28:59;;;;;;;5.97;2.73;;;;;;;29.50;36.51;101883.19;5111784;28;20031;-82
2022/07/29 09:31:38;;;;;;;4.50;2.60;;;;;;;30.02;34.90;101885.09;5112796;28;20027;-79
2022/07/29 09:34:05;;;;;;;7.50;2.80;;;;;;;29.89;35.56;101886.25;5112242;28;20030;-78
2022/07/29 09:36:31;;;;;;;4.97;2.40;;;;;;;30.69;37.29;101887.16;5112328;28;20044;-81
2022/07/29 09:39:00;;;;;;;8.57;2.60;;;;;;;30.93;34.04;101890.59;5111575;28;20039;-82
2022/07/29 09:41:27;;;;;;;7.70;2.72;;;;;;;30.38;31.75;101892.09;5111439;28;20040;-79
2022/07/29 09:43:59;;;;;;;9.18;2.92;;;;;;;30.42;32.92;101882.34;5112368;28;20081;-80
2022/07/29 09:46:25;;;;;;;4.85;2.30;;;;;;;30.38;32.97;101878.38;5112497;28;20039;-81
2022/07/29 09:49:12;;;;;;;11.13;2.88;;;;;;;30.83;32.47;101879.44;5111567;28;20028;-82
2022/07/29 09:51:38;;;;;;;9.65;3.00;;;;;;;31.35;31.78;101882.94;5111717;28;20535;-78
2022/07/29 09:54:23;;;;;;;7.85;2.53;;;;;;;31.38;31.88;101880.53;5111630;28;20468;-78
2022/07/29 09:56:49;;;;;;;8.82;2.13;;;;;;;31.52;30.94;101875.50;5110536;28;20087;-75
2022/07/29 09:59:14;;;;;;;3.58;2.00;;;;;;;31.17;30.55;101875.81;5110720;28;20059;-76
2022/07/29 10:01:40;;;;;;;4.85;2.00;;;;;;;31.38;32.25;101882.44;5110107;28;20097;-77
2022/07/29 10:04:05;;;;;;;7.45;2.20;;;;;;;31.64;32.55;101876.22;5110678;28;20027;-75
2022/07/29 10:06:31;;;;;;;5.10;1.80;;;;;;;31.55;30.98;101880.50;5109803;28;20354;-75
2022/07/29 10:09:10;;;;;;;5.57;2.25;;;;;;;31.80;30.57;101873.66;5110366;28;20027;-76
2022/07/29 10:11:36;;;;;;;4.40;1.90;;;;;;;31.92;30.21;101874.34;5112517;28;20395;-75
2022/07/29 10:14:03;;;;;;;7.18;2.15;;;;;;;32.12;30.02;101873.75;5114445;28;20043;-77
2022/07/29 10:16:32;;;;;;;9.57;1.80;;;;;;;31.47;31.83;101878.19;5116643;28;20055;-75
2022/07/29 10:18:59;;;;;;;4.53;2.35;;;;;;;31.92;28.80;101868.84;5097789;28;20023;-74
2022/07/29 10:21:25;;;;;;;9.60;2.10;;;;;;;31.68;29.65;101879.31;5115810;28;20028;-74
2022/07/29 10:23:52;;;;;;;5.70;2.17;;;;;;;30.75;31.09;101868.84;5114799;28;20333;-77
2022/07/29 10:26:18;;;;;;;4.10;1.70;;;;;;;30.74;32.99;101876.25;5115217;28;20037;-76
2022/07/29 10:28:44;;;;;;;4.57;1.92;;;;;;;31.38;31.57;101876.94;5113868;28;20020;-77
2022/07/29 10:31:24;;;;;;;5.15;1.85;;;;;;;31.84;30.73;101876.72;5113601;28;20082;-76
2022/07/29 10:34:14;;;;;;;5.90;2.30;;;;;;;30.72;31.91;101869.34;5114558;28;20140;-70
2022/07/29 10:37:07;;;;;;;5.38;2.00;;;;;;;30.98;31.10;101876.09;5112769;28;20397;-70
2022/07/29 10:40:00;;;;;;;5.85;2.10;;;;;;;30.87;29.72;101871.50;5112898;28;20031;-69
2022/07/29 10:42:29;;;;;;;4.10;1.85;;;;;;;31.11;30.36;101866.66;5112613;28;20085;-70
2022/07/29 10:44:55;;;;;;;6.30;2.30;;;;;;;30.99;30.57;101868.69;5112606;28;20111;-71
2022/07/29 10:47:23;;;;;;;10.55;2.03;;;;;;;31.28;30.82;101867.47;5110761;28;20092;-70
2022/07/29 10:50:04;;;;;;;7.93;2.00;;;;;;;31.51;32.25;101862.81;5112960;28;20456;-70
2022/07/29 10:52:52;;;;;;;7.93;2.08;;;;;;;31.96;30.42;101860.88;5112455;28;20084;-70
2022/07/29 10:55:39;;;;;;;5.32;1.80;;;;;;;32.48;29.60;101856.75;5112704;28;20168;-70
2022/07/29 10:58:14;;;;;;;8.20;2.13;;;;;;;32.40;30.24;101851.72;5111418;28;20453;-69
2022/07/29 11:00:40;;;;;;;4.07;1.83;;;;;;;32.90;28.51;101857.91;5113083;28;20028;-70
2022/07/29 11:03:05;;;;;;;9.95;1.90;;;;;;;33.36;28.06;101856.25;5116098;28;20042;-71
2022/07/29 11:05:51;;;;;;;6.30;2.10;;;;;;;33.29;27.63;101854.84;5115471;28;20452;-70
2022/07/29 11:08:21;;;;;;;7.28;1.77;;;;;;;33.06;27.71;101856.09;5112766;27;20032;-69
2022/07/29 11:10:51;;;;;;;4.87;1.80;;;;;;;32.75;28.34;101855.88;5112734;28;20028;-69
2022/07/29 11:13:47;;;;;;;5.25;1.90;;;;;;;31.75;30.34;101860.66;5112750;28;20035;-70
2022/07/29 11:16:14;;;;;;;6.53;2.08;;;;;;;30.06;33.94;101859.66;5112614;28;20031;-72
2022/07/29 11:19:10;;;;;;;3.97;2.08;;;;;;;30.24;31.77;101860.53;5112565;28;20019;-72
2022/07/29 11:21:37;;;;;;;4.32;1.80;;;;;;;31.39;32.85;101851.13;5112559;28;20062;-70
2022/07/29 11:24:16;;;;;;;4.25;2.00;;;;;;;32.10;30.17;101847.56;5112261;28;20040;-72
2022/07/29 11:26:42;;;;;;;7.03;2.17;;;;;;;32.32;29.96;101842.84;5112040;28;20027;-71
2022/07/29 11:29:23;;;;;;;6.15;2.33;;;;;;;31.98;29.90;101847.72;5110621;28;20344;-70
2022/07/29 11:31:54;;;;;;;8.05;1.90;;;;;;;31.85;31.81;101845.38;5112044;28;20047;-71
2022/07/29 11:34:24;;;;;;;7.15;2.08;;;;;;;32.56;31.12;101844.41;5112211;28;20019;-71